createdAt,value
2022-08-20T00:01:01.934Z,9.75
2022-08-20T00:04:07.188Z,9.18
2022-08-20T00:07:10.537Z,12.50
2022-08-20T00:10:13.885Z,10.20
2022-08-20T00:13:22.175Z,8.52
2022-08-20T00:16:27.717Z,9.27
2022-08-20T00:19:30.947Z,9.52
2022-08-20T00:22:35.749Z,10.17
2022-08-20T00:25:40.592Z,10.97
2022-08-20T00:28:44.489Z,9.05
2022-08-20T00:31:47.693Z,9.20
2022-08-20T00:34:51.076Z,13.50
2022-08-20T00:38:00.513Z,8.57
2022-08-20T00:41:05.689Z,10.63
2022-08-20T00:44:12.053Z,9.90
2022-08-20T00:47:15.286Z,12.82
2022-08-20T00:50:22.106Z,11.93
2022-08-20T00:53:26.940Z,9.93
2022-08-20T00:56:33.920Z,9.97
2022-08-20T00:59:40.379Z,11.35
2022-08-20T01:02:44.668Z,12.55
2022-08-20T01:05:50.663Z,9.70
2022-08-20T01:08:53.929Z,11.57
2022-08-20T01:11:57.284Z,9.77
2022-08-20T01:15:02.970Z,9.93
2022-08-20T01:18:10.961Z,11.48
2022-08-20T01:21:14.517Z,10.00
2022-08-20T01:24:39.256Z,13.43
2022-08-20T01:27:43.101Z,13.53
2022-08-20T01:30:46.503Z,15.30
2022-08-20T01:33:51.843Z,12.35
2022-08-20T01:36:57.463Z,12.48
2022-08-20T01:40:01.920Z,13.57
2022-08-20T01:43:09.674Z,12.53
2022-08-20T01:46:13.695Z,13.65
2022-08-20T01:49:25.468Z,12.02
2022-08-20T01:52:48.940Z,14.25
2022-08-20T01:55:52.870Z,11.37
2022-08-20T01:58:59.251Z,13.77
2022-08-20T02:02:03.118Z,14.02
2022-08-20T02:05:07.063Z,14.38
2022-08-20T02:08:10.291Z,14.90
2022-08-20T02:11:14.876Z,13.13
2022-08-20T02:14:18.152Z,13.83
2022-08-20T02:17:24.000Z,10.70
2022-08-20T02:20:30.311Z,11.20
2022-08-20T02:23:36.088Z,14.68
2022-08-20T02:26:40.315Z,7.77
2022-08-20T02:29:43.694Z,11.37
2022-08-20T02:32:47.413Z,8.82
2022-08-20T02:35:51.209Z,7.90
2022-08-20T02:38:54.407Z,8.07
2022-08-20T02:41:57.762Z,8.50
2022-08-20T02:45:01.699Z,10.70
2022-08-20T02:48:05.540Z,9.50
2022-08-20T02:51:09.375Z,10.07
2022-08-20T02:54:13.312Z,12.02
2022-08-20T02:57:20.791Z,9.17
2022-08-20T03:00:24.049Z,11.80
2022-08-20T03:03:27.297Z,9.75
2022-08-20T03:06:31.380Z,11.70
2022-08-20T03:09:34.622Z,10.90
2022-08-20T03:12:38.414Z,9.47
2022-08-20T03:15:48.128Z,10.60
2022-08-20T03:18:52.040Z,10.90
2022-08-20T03:21:55.694Z,9.60
2022-08-20T03:24:58.804Z,12.25
2022-08-20T03:28:02.397Z,8.73
2022-08-20T03:31:06.248Z,12.67
2022-08-20T03:34:09.443Z,9.52
2022-08-20T03:37:12.769Z,10.55
2022-08-20T03:40:24.658Z,14.82
2022-08-20T03:43:28.126Z,9.97
2022-08-20T03:46:31.427Z,12.03
2022-08-20T03:49:36.300Z,17.52
2022-08-20T03:52:39.948Z,16.25
2022-08-20T03:55:54.771Z,12.90
2022-08-20T03:58:59.035Z,14.20
2022-08-20T04:02:02.295Z,14.50
2022-08-20T04:05:07.309Z,13.70
2022-08-20T04:08:30.885Z,12.43
2022-08-20T04:11:34.057Z,14.15
2022-08-20T04:14:37.286Z,14.77
2022-08-20T04:17:45.093Z,14.17
2022-08-20T04:20:48.693Z,9.23
2022-08-20T04:23:52.638Z,9.90
2022-08-20T04:26:56.239Z,8.93
2022-08-20T04:30:04.049Z,8.70
2022-08-20T04:33:07.245Z,7.80
2022-08-20T04:36:10.803Z,9.52
2022-08-20T04:39:15.511Z,6.82
2022-08-20T04:42:18.761Z,8.68
2022-08-20T04:45:22.235Z,12.50
2022-08-20T04:48:28.713Z,14.57
2022-08-20T04:51:33.940Z,32.25
2022-08-20T04:54:37.275Z,12.80
2022-08-20T04:57:41.092Z,11.85
2022-08-20T05:00:48.102Z,11.20
2022-08-20T05:03:54.680Z,9.80
2022-08-20T05:06:57.946Z,14.57
2022-08-20T05:10:05.807Z,12.70
2022-08-20T05:13:09.825Z,15.77
2022-08-20T05:16:13.112Z,15.30
2022-08-20T05:19:17.396Z,19.97
2022-08-20T05:22:20.564Z,17.50
2022-08-20T05:25:24.348Z,13.43
2022-08-20T05:28:32.913Z,18.58
2022-08-20T05:31:40.144Z,14.93
2022-08-20T05:34:43.347Z,16.93
2022-08-20T05:38:11.559Z,14.18
2022-08-20T05:41:14.920Z,12.95
2022-08-20T05:44:31.773Z,25.23
2022-08-20T05:47:39.599Z,21.80
2022-08-20T05:50:51.988Z,21.67
2022-08-20T05:53:57.412Z,21.05
2022-08-20T05:57:02.821Z,18.20
2022-08-20T06:00:10.633Z,18.90
2022-08-20T06:03:36.777Z,13.67
2022-08-20T06:06:46.072Z,5.53
2022-08-20T06:09:50.907Z,11.20
2022-08-20T06:12:54.097Z,9.52
2022-08-20T06:15:57.924Z,17.48
2022-08-20T06:19:04.746Z,10.33
2022-08-20T06:22:18.423Z,18.50
2022-08-20T06:25:24.402Z,18.33
2022-08-20T06:28:27.720Z,25.85
2022-08-20T06:31:31.035Z,44.95
2022-08-20T06:34:34.111Z,58.50
2022-08-20T06:37:38.497Z,86.83
2022-08-20T06:40:42.239Z,57.90
2022-08-20T06:43:46.534Z,30.00
2022-08-20T06:46:49.654Z,25.48
2022-08-20T06:49:52.633Z,28.37
2022-08-20T06:52:55.753Z,29.33
2022-08-20T06:55:59.331Z,25.08
2022-08-20T06:59:02.277Z,21.13
2022-08-20T07:02:05.760Z,22.13
2022-08-20T07:05:08.860Z,22.60
2022-08-20T07:08:13.645Z,21.00
2022-08-20T07:11:16.694Z,23.50
2022-08-20T07:14:20.222Z,23.60
2022-08-20T07:17:24.253Z,26.30
2022-08-20T07:20:27.655Z,22.43
2022-08-20T07:23:31.758Z,24.93
2022-08-20T07:26:35.035Z,24.80
2022-08-20T07:29:57.002Z,23.63
2022-08-20T07:33:00.096Z,24.13
2022-08-20T07:36:04.390Z,25.13
2022-08-20T07:39:07.594Z,25.43
2022-08-20T07:42:12.864Z,31.25
2022-08-20T07:45:18.671Z,25.13
2022-08-20T07:48:31.472Z,25.92
2022-08-20T07:51:35.815Z,19.33
2022-08-20T07:54:39.979Z,14.93
2022-08-20T07:57:43.801Z,19.98
2022-08-20T08:00:50.688Z,22.58
2022-08-20T08:03:54.970Z,16.40
2022-08-20T08:07:00.233Z,17.63
2022-08-20T08:10:04.498Z,21.53
2022-08-20T08:13:09.844Z,17.02
2022-08-20T08:16:13.277Z,16.98
2022-08-20T08:19:18.969Z,16.20
2022-08-20T08:22:22.205Z,15.90
2022-08-20T08:25:25.616Z,15.47
2022-08-20T08:28:29.648Z,19.98
2022-08-20T08:31:33.183Z,15.13
2022-08-20T08:34:37.063Z,13.48
2022-08-20T08:37:41.344Z,16.10
2022-08-20T08:40:45.060Z,33.27
2022-08-20T08:43:53.388Z,16.70
2022-08-20T08:47:04.117Z,10.45
2022-08-20T08:50:08.363Z,12.02
2022-08-20T08:53:16.266Z,18.33
2022-08-20T08:56:19.226Z,8.97
2022-08-20T08:59:23.250Z,12.80
2022-08-20T09:02:27.795Z,16.05
2022-08-20T09:05:35.165Z,10.68
2022-08-20T09:08:43.373Z,21.00
2022-08-20T09:11:50.678Z,10.93
2022-08-20T09:14:54.115Z,12.60
2022-08-20T09:17:57.306Z,14.45
2022-08-20T09:21:02.916Z,16.25
2022-08-20T09:24:06.106Z,15.23
2022-08-20T09:27:09.147Z,17.97
2022-08-20T09:30:12.938Z,15.82
2022-08-20T09:33:16.848Z,13.75
2022-08-20T09:36:31.731Z,15.70
2022-08-20T09:39:36.679Z,17.73
2022-08-20T09:42:41.808Z,15.10
2022-08-20T09:45:45.087Z,12.35
2022-08-20T09:48:48.203Z,16.45
2022-08-20T09:51:51.444Z,12.35
2022-08-20T09:55:02.189Z,30.93
2022-08-20T09:58:17.908Z,16.63
2022-08-20T10:01:23.064Z,21.17
2022-08-20T10:04:26.433Z,31.70
2022-08-20T10:07:29.869Z,20.23
2022-08-20T10:10:33.136Z,20.77
2022-08-20T10:13:36.445Z,17.73
2022-08-20T10:16:39.692Z,17.83
2022-08-20T10:19:42.915Z,17.67
2022-08-20T10:22:46.509Z,18.83
2022-08-20T10:25:49.643Z,24.80
2022-08-20T10:28:52.821Z,17.73
2022-08-20T10:31:57.081Z,20.58
2022-08-20T10:35:00.004Z,20.05
2022-08-20T10:38:03.016Z,15.65
2022-08-20T10:41:06.518Z,17.40
2022-08-20T10:44:09.479Z,18.10
2022-08-20T10:47:16.907Z,17.70
2022-08-20T10:50:20.076Z,19.30
2022-08-20T10:53:23.223Z,32.45
2022-08-20T10:56:26.328Z,15.67
2022-08-20T10:59:29.351Z,17.67
2022-08-20T11:02:32.264Z,18.85
2022-08-20T11:05:35.244Z,15.93
2022-08-20T11:08:38.309Z,22.77
2022-08-20T11:11:41.584Z,29.13
2022-08-20T11:14:45.292Z,28.40
2022-08-20T11:17:48.632Z,36.67
2022-08-20T11:20:52.303Z,27.02
2022-08-20T11:23:55.379Z,34.78
2022-08-20T11:26:58.363Z,25.60
2022-08-20T11:30:01.496Z,23.70
2022-08-20T11:33:05.073Z,22.92
2022-08-20T11:36:08.382Z,25.08
2022-08-20T11:39:11.783Z,22.63
2022-08-20T11:42:14.999Z,23.20
2022-08-20T11:45:18.059Z,28.00
2022-08-20T11:48:21.363Z,24.08
2022-08-20T11:51:24.300Z,20.40
2022-08-20T11:54:29.006Z,25.25
2022-08-20T11:57:34.040Z,27.43
2022-08-20T12:00:37.163Z,23.30
2022-08-20T12:03:40.151Z,23.55
2022-08-20T12:06:43.117Z,23.95
2022-08-20T12:09:50.692Z,28.75
2022-08-20T12:12:54.876Z,21.93
2022-08-20T12:15:58.085Z,23.47
2022-08-20T12:19:01.124Z,24.10
2022-08-20T12:22:21.325Z,26.13
2022-08-20T12:25:27.292Z,20.35
2022-08-20T12:28:31.206Z,19.80
2022-08-20T12:31:34.175Z,19.40
2022-08-20T12:34:38.203Z,20.83
2022-08-20T12:37:41.596Z,20.15
2022-08-20T12:40:44.986Z,20.00
2022-08-20T12:43:48.008Z,17.80
2022-08-20T12:46:50.929Z,17.03
2022-08-20T12:49:55.071Z,19.20
2022-08-20T12:52:58.631Z,20.73
2022-08-20T12:56:05.140Z,18.77
2022-08-20T12:59:08.296Z,21.63
2022-08-20T13:02:15.778Z,18.47
2022-08-20T13:05:23.160Z,21.55
2022-08-20T13:08:26.291Z,21.98
2022-08-20T13:11:29.971Z,19.52
2022-08-20T13:14:33.180Z,16.50
2022-08-20T13:17:38.651Z,20.60
2022-08-20T13:20:42.916Z,17.52
2022-08-20T13:23:46.029Z,17.90
2022-08-20T13:26:49.709Z,16.40
2022-08-20T13:29:58.585Z,17.97
2022-08-20T13:33:02.819Z,16.60
2022-08-20T13:36:06.128Z,17.42
2022-08-20T13:39:09.453Z,18.00
2022-08-20T13:42:13.977Z,20.80
2022-08-20T13:45:17.279Z,18.80
2022-08-20T13:48:20.521Z,17.53
2022-08-20T13:51:24.032Z,17.00
2022-08-20T13:54:30.843Z,19.20
2022-08-20T13:57:34.110Z,21.67
2022-08-20T14:00:37.547Z,19.17
2022-08-20T14:03:40.853Z,22.33
2022-08-20T14:06:45.911Z,21.30
2022-08-20T14:09:53.974Z,24.30
2022-08-20T14:12:57.303Z,26.42
2022-08-20T14:16:00.625Z,20.93
2022-08-20T14:19:03.844Z,13.37
2022-08-20T14:22:07.119Z,20.58
2022-08-20T14:25:13.326Z,18.95
2022-08-20T14:28:20.735Z,21.30
2022-08-20T14:31:23.886Z,23.87
2022-08-20T14:34:27.037Z,17.33
2022-08-20T14:37:37.930Z,16.90
2022-08-20T14:40:41.145Z,16.55
2022-08-20T14:43:44.380Z,7.93
2022-08-20T14:46:47.673Z,9.97
2022-08-20T14:49:53.252Z,15.37
2022-08-20T14:52:57.232Z,13.68
2022-08-20T14:56:01.504Z,17.30
2022-08-20T14:59:05.028Z,12.02
2022-08-20T15:02:10.872Z,10.83
2022-08-20T15:05:14.735Z,16.20
2022-08-20T15:08:17.943Z,18.52
2022-08-20T15:11:22.454Z,17.40
2022-08-20T15:14:26.713Z,21.30
2022-08-20T15:17:33.506Z,19.67
2022-08-20T15:20:37.425Z,22.53
2022-08-20T15:23:40.658Z,28.45
2022-08-20T15:26:43.881Z,29.23
2022-08-20T15:29:47.929Z,32.10
2022-08-20T15:32:55.019Z,32.70
2022-08-20T15:35:58.404Z,34.87
2022-08-20T15:39:01.601Z,31.98
2022-08-20T15:42:06.261Z,29.67
2022-08-20T15:45:10.342Z,25.17
2022-08-20T15:48:19.283Z,26.80
2022-08-20T15:51:28.343Z,21.13
2022-08-20T15:54:31.640Z,23.77
2022-08-20T15:57:57.864Z,21.17
2022-08-20T16:01:31.123Z,17.00
2022-08-20T16:04:52.055Z,19.27
2022-08-20T16:08:07.639Z,14.93
2022-08-20T16:11:26.140Z,17.73
2022-08-20T16:14:34.539Z,18.35
2022-08-20T16:17:50.968Z,15.95
2022-08-20T16:21:03.089Z,12.93
2022-08-20T16:24:12.926Z,15.73
2022-08-20T16:27:30.193Z,16.17
2022-08-20T16:30:51.156Z,13.20
2022-08-20T16:34:39.331Z,17.95
2022-08-20T16:37:46.013Z,17.03
2022-08-20T16:41:02.044Z,28.93
2022-08-20T16:44:28.730Z,17.60
2022-08-20T16:47:35.781Z,17.15
2022-08-20T16:51:01.693Z,17.08
2022-08-20T16:54:05.583Z,15.80
2022-08-20T16:57:09.619Z,16.37
2022-08-20T17:00:25.012Z,17.80
2022-08-20T17:03:31.347Z,15.38
2022-08-20T17:06:48.592Z,18.83
2022-08-20T17:09:57.904Z,15.20
2022-08-20T17:13:23.493Z,13.17
2022-08-20T17:16:40.702Z,15.35
2022-08-20T17:19:55.980Z,15.60
2022-08-20T17:23:17.909Z,18.40
2022-08-20T17:26:23.598Z,23.20
2022-08-20T17:29:30.773Z,17.43
2022-08-20T17:32:34.080Z,17.55
2022-08-20T17:35:53.643Z,19.63
2022-08-20T17:38:59.781Z,15.30
2022-08-20T17:42:09.486Z,18.40
2022-08-20T17:45:26.098Z,15.20
2022-08-20T17:48:35.831Z,19.38
2022-08-20T17:51:44.713Z,17.85
2022-08-20T17:54:49.327Z,21.05
2022-08-20T17:57:56.656Z,21.20
2022-08-20T18:01:00.619Z,20.90
2022-08-20T18:04:03.960Z,19.15
2022-08-20T18:07:34.890Z,18.55
2022-08-20T18:10:58.300Z,18.85
2022-08-20T18:14:30.273Z,23.40
2022-08-20T18:17:38.866Z,19.20
2022-08-20T18:20:55.451Z,22.92
2022-08-20T18:24:10.352Z,24.38
2022-08-20T18:27:17.349Z,19.58
2022-08-20T18:30:24.347Z,22.73
2022-08-20T18:33:30.281Z,26.20
2022-08-20T18:36:34.423Z,28.88
2022-08-20T18:39:40.463Z,31.67
2022-08-20T18:42:44.284Z,30.27
2022-08-20T18:45:47.493Z,27.30
2022-08-20T18:48:59.512Z,26.23
2022-08-20T18:52:22.868Z,26.00
2022-08-20T18:55:33.343Z,27.75
2022-08-20T18:58:48.792Z,29.08
2022-08-20T19:01:52.222Z,26.60
2022-08-20T19:05:02.824Z,24.80
2022-08-20T19:08:07.882Z,28.17
2022-08-20T19:11:31.908Z,28.70
2022-08-20T19:14:53.436Z,28.17
2022-08-20T19:18:10.255Z,26.33
2022-08-20T19:21:15.966Z,28.07
2022-08-20T19:24:31.325Z,25.38
2022-08-20T19:27:34.946Z,25.35
2022-08-20T19:30:41.571Z,28.15
2022-08-20T19:33:46.902Z,23.13
2022-08-20T19:37:10.132Z,19.87
2022-08-20T19:40:38.859Z,28.85
2022-08-20T19:43:44.688Z,32.25
2022-08-20T19:46:48.628Z,28.40
2022-08-20T19:50:16.080Z,28.17
2022-08-20T19:53:34.765Z,29.47
2022-08-20T19:56:41.986Z,27.23
2022-08-20T20:00:07.547Z,26.17
2022-08-20T20:03:19.510Z,27.05
2022-08-20T20:06:24.776Z,22.93
2022-08-20T20:09:29.925Z,25.83
2022-08-20T20:12:34.617Z,27.35
2022-08-20T20:15:39.241Z,26.05
2022-08-20T20:18:43.232Z,29.02
2022-08-20T20:21:49.259Z,28.07
2022-08-20T20:25:17.201Z,31.07
2022-08-20T20:28:28.022Z,31.45
2022-08-20T20:31:36.503Z,36.20
2022-08-20T20:34:55.255Z,31.13
2022-08-20T20:38:11.397Z,29.50
2022-08-20T20:41:23.864Z,32.13
2022-08-20T20:44:28.883Z,28.63
2022-08-20T20:47:35.898Z,24.45
2022-08-20T20:50:39.637Z,26.88
2022-08-20T20:53:51.603Z,21.23
2022-08-20T20:57:04.566Z,21.03
2022-08-20T21:00:13.142Z,22.98
2022-08-20T21:03:16.381Z,25.17
2022-08-20T21:06:24.797Z,22.27
2022-08-20T21:09:28.489Z,22.87
2022-08-20T21:12:31.725Z,22.27
2022-08-20T21:15:37.491Z,20.45
2022-08-20T21:18:41.070Z,19.80
2022-08-20T21:21:44.348Z,21.60
2022-08-20T21:24:51.324Z,23.13
2022-08-20T21:27:55.240Z,19.90
2022-08-20T21:30:58.973Z,25.17
2022-08-20T21:34:02.604Z,22.48
2022-08-20T21:37:05.819Z,24.10
2022-08-20T21:40:09.928Z,20.33
2022-08-20T21:43:13.287Z,19.97
2022-08-20T21:46:18.153Z,26.63
2022-08-20T21:49:29.941Z,23.92
2022-08-20T21:52:35.466Z,25.13
2022-08-20T21:55:39.803Z,27.60
2022-08-20T21:58:45.385Z,24.83
2022-08-20T22:01:48.851Z,23.67
2022-08-20T22:04:53.966Z,26.45
2022-08-20T22:07:57.348Z,25.95
2022-08-20T22:11:01.300Z,26.10
2022-08-20T22:14:08.327Z,28.23
2022-08-20T22:17:11.614Z,27.20
2022-08-20T22:20:14.865Z,24.75
2022-08-20T22:23:18.102Z,24.85
2022-08-20T22:26:21.426Z,25.00
2022-08-20T22:29:25.064Z,27.40
2022-08-20T22:32:33.382Z,27.20
2022-08-20T22:35:55.134Z,25.90
2022-08-20T22:38:58.503Z,26.77
2022-08-20T22:42:01.833Z,27.33
2022-08-20T22:45:05.331Z,27.87
2022-08-20T22:48:20.200Z,30.77
2022-08-20T22:51:32.452Z,32.90
2022-08-20T22:54:39.316Z,27.90
2022-08-20T22:57:48.319Z,30.60
2022-08-20T23:00:53.747Z,35.90
2022-08-20T23:04:12.272Z,28.27
2022-08-20T23:07:15.809Z,29.20
2022-08-20T23:10:19.191Z,33.33
2022-08-20T23:13:22.571Z,33.50
2022-08-20T23:16:26.171Z,35.50
2022-08-20T23:19:32.423Z,32.35
2022-08-20T23:22:36.024Z,38.70
2022-08-20T23:25:41.536Z,36.85
2022-08-20T23:28:44.747Z,36.10
2022-08-20T23:31:47.940Z,35.03
2022-08-20T23:34:52.212Z,33.55
2022-08-20T23:37:57.556Z,32.92
2022-08-20T23:41:00.969Z,30.33
2022-08-20T23:44:04.487Z,33.30
2022-08-20T23:47:08.475Z,35.00
2022-08-20T23:50:21.005Z,32.17
2022-08-20T23:53:27.340Z,35.80
2022-08-20T23:56:30.672Z,30.92
2022-08-20T23:59:34.115Z,31.13
